createdAt,value
2023-02-11T00:02:04.833Z,102890.41
2023-02-11T00:04:37.476Z,102883.38
2023-02-11T00:07:11.606Z,102876.38
2023-02-11T00:09:44.453Z,102879.00
2023-02-11T00:12:19.467Z,102894.84
2023-02-11T00:14:54.794Z,102893.94
2023-02-11T00:17:27.661Z,102891.16
2023-02-11T00:20:00.516Z,102895.59
2023-02-11T00:22:34.718Z,102893.00
2023-02-11T00:25:07.877Z,102894.81
2023-02-11T00:27:40.999Z,102885.91
2023-02-11T00:30:14.294Z,102881.47
2023-02-11T00:32:47.086Z,102872.56
2023-02-11T00:35:19.845Z,102871.69
2023-02-11T00:37:55.981Z,102874.53
2023-02-11T00:40:29.160Z,102876.03
2023-02-11T00:43:02.160Z,102873.44
2023-02-11T00:45:34.961Z,102871.69
2023-02-11T00:48:08.071Z,102871.56
2023-02-11T00:50:40.894Z,102876.94
2023-02-11T00:53:15.110Z,102872.50
2023-02-11T00:55:48.217Z,102864.53
2023-02-11T00:58:22.451Z,102882.19
2023-02-11T01:00:55.340Z,102876.88
2023-02-11T01:03:28.125Z,102858.56
2023-02-11T01:06:01.400Z,102872.44
2023-02-11T01:08:35.544Z,102870.03
2023-02-11T01:11:13.504Z,102876.94
2023-02-11T01:13:48.037Z,102876.88
2023-02-11T01:16:22.451Z,102886.59
2023-02-11T01:18:55.846Z,102885.66
2023-02-11T01:21:28.806Z,102882.31
2023-02-11T01:24:02.951Z,102882.19
2023-02-11T01:26:35.795Z,102891.91
2023-02-11T01:29:09.281Z,102885.66
2023-02-11T01:31:42.147Z,102873.44
2023-02-11T01:34:15.478Z,102875.16
2023-02-11T01:36:48.272Z,102857.69
2023-02-11T01:39:22.351Z,102873.38
2023-02-11T01:41:56.058Z,102882.19
2023-02-11T01:44:32.934Z,102877.88
2023-02-11T01:47:06.511Z,102857.81
2023-02-11T01:49:43.271Z,102879.66
2023-02-11T01:52:22.110Z,102866.38
2023-02-11T01:55:17.828Z,102853.13
2023-02-11T01:57:56.275Z,102839.25
2023-02-11T02:00:35.546Z,102848.00
2023-02-11T02:06:24.014Z,102828.44
2023-02-11T02:09:02.187Z,102832.88
2023-02-11T02:11:37.406Z,102833.19
2023-02-11T02:14:10.183Z,102848.91
2023-02-11T02:16:43.191Z,102854.22
2023-02-11T02:19:48.652Z,102846.41
2023-02-11T02:22:59.141Z,102857.84
2023-02-11T02:25:59.739Z,102836.03
2023-02-11T02:28:57.974Z,102841.97
2023-02-11T02:31:51.350Z,102837.69
2023-02-11T02:34:31.871Z,102836.66
2023-02-11T02:37:11.306Z,102825.44
2023-02-11T02:39:47.481Z,102826.28
2023-02-11T02:42:21.315Z,102820.84
2023-02-11T02:44:54.413Z,102823.56
2023-02-11T02:47:27.466Z,102820.13
2023-02-11T02:50:01.880Z,102814.00
2023-02-11T02:52:40.243Z,102829.72
2023-02-11T02:55:34.474Z,102840.34
2023-02-11T02:58:31.205Z,102828.81
2023-02-11T03:01:15.084Z,102831.59
2023-02-11T03:03:53.092Z,102815.91
2023-02-11T03:06:34.635Z,102827.34
2023-02-11T03:09:11.863Z,102832.75
2023-02-11T03:11:44.674Z,102840.53
2023-02-11T03:14:20.284Z,102850.34
2023-02-11T03:16:57.007Z,102843.25
2023-02-11T03:19:35.402Z,102850.41
2023-02-11T03:22:15.501Z,102834.53
2023-02-11T03:24:49.353Z,102820.66
2023-02-11T03:27:28.354Z,102838.94
2023-02-11T03:30:11.996Z,102833.63
2023-02-11T03:32:52.295Z,102819.56
2023-02-11T03:35:32.857Z,102814.31
2023-02-11T03:38:10.213Z,102816.25
2023-02-11T03:40:45.544Z,102784.03
2023-02-11T03:43:22.829Z,102817.91
2023-02-11T03:45:57.397Z,102803.88
2023-02-11T03:48:34.184Z,102793.38
2023-02-11T03:51:10.091Z,102802.94
2023-02-11T03:53:47.723Z,102799.47
2023-02-11T03:56:24.541Z,102805.72
2023-02-11T03:58:57.806Z,102817.91
2023-02-11T04:01:30.726Z,102813.59
2023-02-11T04:04:04.956Z,102809.94
2023-02-11T04:06:38.506Z,102810.34
2023-02-11T04:09:13.478Z,102822.44
2023-02-11T04:11:46.003Z,102832.09
2023-02-11T04:14:18.781Z,102793.81
2023-02-11T04:16:51.581Z,102816.31
2023-02-11T04:19:24.354Z,102832.09
2023-02-11T04:21:57.129Z,102827.69
2023-02-11T04:24:31.425Z,102826.25
2023-02-11T04:27:04.401Z,102850.72
2023-02-11T04:29:37.714Z,102845.41
2023-02-11T04:32:11.684Z,102827.22
2023-02-11T04:34:44.725Z,102841.88
2023-02-11T04:37:17.539Z,102825.97
2023-02-11T04:39:51.691Z,102829.53
2023-02-11T04:42:25.067Z,102818.97
2023-02-11T04:44:58.026Z,102812.97
2023-02-11T04:47:30.889Z,102828.66
2023-02-11T04:50:03.763Z,102833.97
2023-02-11T04:52:36.473Z,102832.25
2023-02-11T04:55:10.741Z,102826.00
2023-02-11T04:57:43.602Z,102805.34
2023-02-11T05:00:17.416Z,102812.84
2023-02-11T05:02:50.260Z,102814.91
2023-02-11T05:05:23.039Z,102811.22
2023-02-11T05:07:55.835Z,102820.94
2023-02-11T05:10:29.933Z,102825.31
2023-02-11T05:13:02.991Z,102813.00
2023-02-11T05:15:36.050Z,102824.47
2023-02-11T05:18:08.844Z,102826.25
2023-02-11T05:20:42.039Z,102820.09
2023-02-11T05:23:14.849Z,102836.13
2023-02-11T05:25:49.242Z,102823.66
2023-02-11T05:28:22.156Z,102824.59
2023-02-11T05:30:55.236Z,102785.34
2023-02-11T05:33:28.570Z,102813.22
2023-02-11T05:36:02.183Z,102808.78
2023-02-11T05:38:35.481Z,102815.81
2023-02-11T05:41:09.889Z,102813.16
2023-02-11T05:43:42.641Z,102804.59
2023-02-11T05:46:15.451Z,102819.47
2023-02-11T05:48:48.338Z,102807.19
2023-02-11T05:51:21.130Z,102808.91
2023-02-11T05:53:54.196Z,102783.75
2023-02-11T05:56:28.396Z,102807.13
2023-02-11T05:59:01.653Z,102796.00
2023-02-11T06:01:34.483Z,102820.44
2023-02-11T06:04:07.382Z,102812.84
2023-02-11T06:06:40.198Z,102833.75
2023-02-11T06:09:12.943Z,102827.44
2023-02-11T06:11:47.368Z,102810.06
2023-02-11T06:14:20.401Z,102819.75
2023-02-11T06:16:53.219Z,102841.72
2023-02-11T06:19:26.081Z,102839.94
2023-02-11T06:21:58.884Z,102815.50
2023-02-11T06:24:51.405Z,102818.22
2023-02-11T06:27:26.671Z,102811.91
2023-02-11T06:29:59.696Z,102821.38
2023-02-11T06:32:44.455Z,102804.88
2023-02-11T06:35:18.151Z,102816.06
2023-02-11T06:37:53.713Z,102818.66
2023-02-11T06:40:26.469Z,102823.97
2023-02-11T06:43:00.646Z,102830.25
2023-02-11T06:45:33.637Z,102832.84
2023-02-11T06:48:06.910Z,102826.66
2023-02-11T06:50:40.086Z,102839.16
2023-02-11T06:53:12.965Z,102842.69
2023-02-11T06:55:45.804Z,102832.16
2023-02-11T06:58:19.992Z,102836.41
2023-02-11T07:00:53.651Z,102840.78
2023-02-11T07:03:26.796Z,102828.50
2023-02-11T07:05:59.596Z,102832.84
2023-02-11T07:08:32.449Z,102829.38
2023-02-11T07:11:10.529Z,102830.19
2023-02-11T07:13:45.245Z,102843.44
2023-02-11T07:16:19.036Z,102840.75
2023-02-11T07:18:52.148Z,102834.56
2023-02-11T07:21:25.341Z,102836.41
2023-02-11T07:23:58.234Z,102846.91
2023-02-11T07:26:31.016Z,102848.56
2023-02-11T07:29:05.578Z,102840.66
2023-02-11T07:31:38.424Z,102842.34
2023-02-11T07:34:12.064Z,102844.13
2023-02-11T07:36:45.047Z,102845.81
2023-02-11T07:39:17.907Z,102857.34
2023-02-11T07:41:50.705Z,102851.00
2023-02-11T07:44:25.208Z,102846.63
2023-02-11T07:46:58.197Z,102848.34
2023-02-11T07:49:31.001Z,102839.50
2023-02-11T07:52:03.809Z,102843.03
2023-02-11T07:54:36.624Z,102830.00
2023-02-11T07:57:09.510Z,102843.81
2023-02-11T07:59:43.993Z,102841.97
2023-02-11T08:02:16.965Z,102848.16
2023-02-11T08:04:50.655Z,102836.13
2023-02-11T08:07:23.491Z,102848.41
2023-02-11T08:09:56.724Z,102878.16
2023-02-11T08:12:29.512Z,102881.47
2023-02-11T08:15:03.940Z,102872.56
2023-02-11T08:17:36.778Z,102858.69
2023-02-11T08:20:10.348Z,102881.38
2023-02-11T08:22:43.211Z,102885.81
2023-02-11T08:25:16.180Z,102892.88
2023-02-11T08:27:48.931Z,102882.88
2023-02-11T08:30:25.052Z,102897.00
2023-02-11T08:32:59.004Z,102884.75
2023-02-11T08:35:32.973Z,102888.81
2023-02-11T08:38:05.714Z,102902.09
2023-02-11T08:40:39.894Z,102898.44
2023-02-11T08:43:12.633Z,102897.41
2023-02-11T08:45:47.081Z,102891.09
2023-02-11T08:48:19.890Z,102899.59
2023-02-11T08:50:52.694Z,102902.19
2023-02-11T08:53:26.197Z,102907.50
2023-02-11T08:55:59.284Z,102884.66
2023-02-11T08:58:32.054Z,102906.28
2023-02-11T09:01:11.452Z,102904.47
2023-02-11T09:03:44.372Z,102899.03
2023-02-11T09:06:18.575Z,102907.50
2023-02-11T09:08:53.903Z,102914.44
2023-02-11T09:11:29.446Z,102916.25
2023-02-11T09:14:03.235Z,102906.19
2023-02-11T09:16:37.618Z,102883.91
2023-02-11T09:19:10.733Z,102901.31
2023-02-11T09:21:43.708Z,102924.78
2023-02-11T09:24:16.676Z,102920.38
2023-02-11T09:26:50.042Z,102925.06
2023-02-11T09:29:22.852Z,102939.16
2023-02-11T09:31:59.122Z,102934.72
2023-02-11T09:34:32.045Z,102932.00
2023-02-11T09:37:05.117Z,102939.25
2023-02-11T09:39:37.935Z,102942.56
2023-02-11T09:42:40.695Z,102944.03
2023-02-11T09:45:18.496Z,102948.41
2023-02-11T09:47:56.895Z,102941.97
2023-02-11T09:50:33.510Z,102951.41
2023-02-11T09:53:12.364Z,102957.00
2023-02-11T09:55:48.895Z,102933.53
2023-02-11T09:58:26.740Z,102952.63
2023-02-11T10:01:07.838Z,102963.63
2023-02-11T10:03:55.659Z,102961.72
2023-02-11T10:06:40.150Z,102940.63
2023-02-11T10:09:29.738Z,102926.81
2023-02-11T10:12:17.097Z,102961.50
2023-02-11T10:15:02.404Z,102951.88
2023-02-11T10:17:39.486Z,102971.16
2023-02-11T10:20:26.353Z,102970.47
2023-02-11T10:23:02.237Z,102978.94
2023-02-11T10:25:38.113Z,102977.88
2023-02-11T10:28:15.297Z,102979.50
2023-02-11T10:30:56.759Z,102980.59
2023-02-11T10:33:35.531Z,102991.03
2023-02-11T10:36:12.100Z,102992.00
2023-02-11T10:38:45.425Z,102985.50
2023-02-11T10:41:23.622Z,102985.69
2023-02-11T10:43:56.768Z,103008.84
2023-02-11T10:46:34.277Z,103006.63
2023-02-11T10:49:07.293Z,103016.66
2023-02-11T10:51:41.785Z,103010.75
2023-02-11T10:54:21.217Z,103021.19
2023-02-11T10:57:00.563Z,103015.59
2023-02-11T10:59:38.320Z,102987.75
2023-02-11T11:02:23.423Z,103010.84
2023-02-11T11:04:58.197Z,103017.72
2023-02-11T11:07:52.454Z,103018.16
2023-02-11T11:10:32.856Z,103022.44
2023-02-11T11:13:30.832Z,103030.16
2023-02-11T11:16:23.155Z,103017.28
2023-02-11T11:19:17.117Z,103014.31
2023-02-11T11:21:52.751Z,103019.38
2023-02-11T11:24:34.271Z,103011.16
2023-02-11T11:27:07.700Z,103013.97
2023-02-11T11:29:45.861Z,102978.56
2023-02-11T11:32:23.355Z,102994.44
2023-02-11T11:34:58.299Z,103007.44
2023-02-11T11:37:31.763Z,103012.16
2023-02-11T11:40:22.688Z,103007.94
2023-02-11T11:43:08.544Z,102991.78
2023-02-11T11:45:53.021Z,103011.16
2023-02-11T11:48:31.237Z,103002.72
2023-02-11T11:54:14.714Z,103006.13
2023-02-11T11:57:19.126Z,102998.31
2023-02-11T11:59:51.930Z,103002.00
2023-02-11T12:02:48.720Z,103004.44
2023-02-11T12:05:27.718Z,102986.84
2023-02-11T12:08:10.663Z,102997.19
2023-02-11T12:11:03.824Z,102999.75
2023-02-11T12:13:49.904Z,103005.09
2023-02-11T12:16:34.528Z,102993.09
2023-02-11T12:22:31.567Z,102997.00
2023-02-11T12:25:22.743Z,102987.00
2023-02-11T12:28:06.827Z,102987.38
2023-02-11T12:31:01.310Z,102975.72
2023-02-11T12:33:51.044Z,102974.72
2023-02-11T12:36:37.998Z,102970.31
2023-02-11T12:39:27.322Z,102951.88
2023-02-11T12:45:51.941Z,102947.75
2023-02-11T12:48:36.194Z,102959.97
2023-02-11T12:51:21.717Z,102964.94
2023-02-11T12:54:18.422Z,102957.81
2023-02-11T12:56:55.447Z,102971.13
2023-02-11T12:59:39.340Z,102975.31
2023-02-11T13:02:21.572Z,102950.78
2023-02-11T13:04:58.189Z,102964.38
2023-02-11T13:14:25.411Z,102939.28
2023-02-11T13:17:32.358Z,102966.34
2023-02-11T13:20:19.504Z,102946.31
2023-02-11T13:23:00.274Z,102956.91
2023-02-11T13:25:44.728Z,102960.59
2023-02-11T13:28:42.480Z,102960.63
2023-02-11T13:31:16.738Z,102947.38
2023-02-11T13:33:50.450Z,102945.75
2023-02-11T13:36:28.615Z,102948.75
2023-02-11T13:39:39.865Z,102951.84
2023-02-11T13:42:18.222Z,102940.28
2023-02-11T13:44:52.257Z,102924.84
2023-02-11T13:47:52.363Z,102953.94
2023-02-11T13:50:27.357Z,102948.00
2023-02-11T13:53:06.177Z,102931.97
2023-02-11T13:55:43.137Z,102956.75
2023-02-11T14:07:46.232Z,102968.59
2023-02-11T14:10:52.405Z,102975.97
2023-02-11T14:13:26.820Z,102932.97
2023-02-11T14:16:08.945Z,102970.72
2023-02-11T14:22:03.458Z,102964.53
2023-02-11T14:27:57.023Z,102962.78
2023-02-11T14:30:47.131Z,102964.16
2023-02-11T14:36:44.474Z,102972.66
2023-02-11T14:39:26.770Z,102971.91
2023-02-11T14:42:03.572Z,102958.16
2023-02-11T14:44:37.940Z,102948.16
2023-02-11T14:47:18.488Z,102958.22
2023-02-11T14:49:51.590Z,102974.06
2023-02-11T14:55:57.475Z,102974.88
2023-02-11T14:58:32.045Z,102966.16
2023-02-11T15:01:23.494Z,102971.25
2023-02-11T15:03:58.178Z,102961.16
2023-02-11T15:06:33.375Z,102969.34
2023-02-11T15:09:14.541Z,102959.66
2023-02-11T15:11:49.881Z,102965.56
2023-02-11T15:14:26.648Z,102980.78
2023-02-11T15:17:05.346Z,102974.06
2023-02-11T15:19:42.009Z,102983.31
2023-02-11T15:22:20.235Z,102979.78
2023-02-11T15:25:00.760Z,102997.41
2023-02-11T15:27:40.357Z,102987.97
2023-02-11T15:30:26.690Z,102991.38
2023-02-11T15:33:05.716Z,102978.09
2023-02-11T15:35:42.268Z,102993.69
2023-02-11T15:38:15.373Z,102996.09
2023-02-11T15:40:56.717Z,102993.25
2023-02-11T15:43:42.974Z,102993.25
2023-02-11T15:46:19.709Z,102967.34
2023-02-11T15:48:56.586Z,102974.88
2023-02-11T15:51:32.873Z,102988.59
2023-02-11T15:54:08.815Z,102992.13
2023-02-11T15:56:44.713Z,102991.34
2023-02-11T15:59:21.752Z,102970.00
2023-02-11T16:01:55.956Z,102969.19
2023-02-11T16:04:30.216Z,103002.25
2023-02-11T16:07:03.146Z,103002.59
2023-02-11T16:09:37.632Z,103009.88
2023-02-11T16:12:27.003Z,102994.28
2023-02-11T16:15:03.768Z,103019.66
2023-02-11T16:17:37.177Z,102998.84
2023-02-11T16:20:20.437Z,103021.66
2023-02-11T16:26:01.316Z,102997.34
2023-02-11T16:28:34.769Z,103029.88
2023-02-11T16:31:09.554Z,103022.81
2023-02-11T16:33:42.203Z,103031.78
2023-02-11T16:36:29.382Z,103026.59
2023-02-11T16:39:04.037Z,103026.03
2023-02-11T16:41:36.812Z,103028.38
2023-02-11T16:44:09.791Z,103025.03
2023-02-11T16:46:42.846Z,103027.66
2023-02-11T16:49:19.197Z,103018.44
2023-02-11T16:51:57.335Z,103019.38
2023-02-11T16:54:32.266Z,103037.81
2023-02-11T16:57:10.202Z,103028.16
2023-02-11T16:59:43.246Z,103033.56
2023-02-11T17:02:21.191Z,103004.81
2023-02-11T17:04:59.179Z,103032.28
2023-02-11T17:07:32.511Z,103050.47
2023-02-11T17:10:15.139Z,103051.53
2023-02-11T17:12:48.892Z,103034.31
2023-02-11T17:15:21.723Z,103043.91
2023-02-11T17:17:54.487Z,103059.78
2023-02-11T17:20:27.781Z,103057.94
2023-02-11T17:23:00.665Z,103068.75
2023-02-11T17:25:37.152Z,103071.47
2023-02-11T17:28:12.020Z,103072.56
2023-02-11T17:30:44.811Z,103072.28
2023-02-11T17:33:18.808Z,103082.16
2023-02-11T17:35:52.015Z,103097.09
2023-02-11T17:38:24.986Z,103093.59
2023-02-11T17:41:00.373Z,103095.38
2023-02-11T17:43:33.294Z,103097.75
2023-02-11T17:46:10.670Z,103097.13
2023-02-11T17:48:43.513Z,103097.25
2023-02-11T17:51:24.100Z,103096.59
2023-02-11T17:53:58.579Z,103092.13
2023-02-11T17:56:35.801Z,103108.00
2023-02-11T17:59:11.106Z,103102.53
2023-02-11T18:01:44.627Z,103105.31
2023-02-11T18:04:19.978Z,103073.34
2023-02-11T18:06:53.464Z,103108.22
2023-02-11T18:09:27.054Z,103105.69
2023-02-11T18:12:01.182Z,103100.38
2023-02-11T18:14:34.915Z,103084.81
2023-02-11T18:17:07.865Z,103099.72
2023-02-11T18:19:40.720Z,103097.00
2023-02-11T18:22:14.312Z,103102.31
2023-02-11T18:24:51.815Z,103115.66
2023-02-11T18:27:25.898Z,103116.78
2023-02-11T18:29:59.394Z,103123.84
2023-02-11T18:32:32.858Z,103122.84
2023-02-11T18:35:08.731Z,103114.97
2023-02-11T18:37:42.452Z,103126.44
2023-02-11T18:40:15.366Z,103128.28
2023-02-11T18:42:49.530Z,103132.69
2023-02-11T18:45:23.783Z,103138.09
2023-02-11T18:47:56.663Z,103141.75
2023-02-11T18:50:29.467Z,103143.41
2023-02-11T18:53:02.247Z,103124.25
2023-02-11T18:55:35.155Z,103126.97
2023-02-11T18:58:09.440Z,103133.81
2023-02-11T19:00:46.379Z,103138.28
2023-02-11T19:03:20.323Z,103138.22
2023-02-11T19:05:54.509Z,103119.13
2023-02-11T19:08:27.477Z,103140.00
2023-02-11T19:11:00.272Z,103143.66
2023-02-11T19:13:34.720Z,103130.69
2023-02-11T19:16:11.377Z,103151.66
2023-02-11T19:18:44.580Z,103151.00
2023-02-11T19:21:17.436Z,103152.00
2023-02-11T19:23:50.361Z,103165.94
2023-02-11T19:26:24.794Z,103171.31
2023-02-11T19:28:59.725Z,103143.50
2023-02-11T19:31:33.230Z,103171.31
2023-02-11T19:34:07.309Z,103152.09
2023-02-11T19:36:40.133Z,103174.84
2023-02-11T19:39:13.454Z,103168.66
2023-02-11T19:41:46.332Z,103173.19
2023-02-11T19:44:20.494Z,103185.56
2023-02-11T19:46:54.642Z,103186.56
2023-02-11T19:49:27.823Z,103186.56
2023-02-11T19:52:02.354Z,103194.44
2023-02-11T19:54:35.192Z,103189.16
2023-02-11T19:57:07.930Z,103177.84
2023-02-11T20:09:28.893Z,103185.78
2023-02-11T20:12:01.691Z,103202.59
2023-02-11T20:14:34.479Z,103203.63
2023-02-11T20:17:07.279Z,103207.22
2023-02-11T20:19:40.047Z,103206.22
2023-02-11T20:25:39.854Z,103208.13
2023-02-11T20:28:13.893Z,103190.03
2023-02-11T20:30:46.729Z,103213.53
2023-02-11T20:33:21.978Z,103215.13
2023-02-11T20:35:56.280Z,103216.13
2023-02-11T20:38:29.301Z,103229.38
2023-02-11T21:00:09.561Z,103228.13
2023-02-11T21:02:42.365Z,103180.38
2023-02-11T21:05:15.454Z,103238.69
2023-02-11T21:07:48.292Z,103231.72
2023-02-11T21:10:21.520Z,103230.91
2023-02-11T21:12:54.620Z,103213.53
2023-02-11T21:15:29.073Z,103219.56
2023-02-11T21:18:02.236Z,103229.06
2023-02-11T21:20:35.297Z,103228.19
2023-02-11T21:23:08.248Z,103233.50
2023-02-11T21:25:41.370Z,103230.91
2023-02-11T21:28:14.811Z,103243.34
2023-02-11T21:30:51.585Z,103239.94
2023-02-11T21:33:25.916Z,103245.13
2023-02-11T21:35:59.862Z,103247.00
2023-02-11T21:38:34.693Z,103248.72
2023-02-11T21:41:08.285Z,103241.06
2023-02-11T21:43:41.109Z,103232.34
2023-02-11T21:46:16.617Z,103260.38
2023-02-11T21:48:50.906Z,103250.66
2023-02-11T21:51:25.955Z,103222.94
2023-02-11T21:54:01.005Z,103248.06
2023-02-11T21:56:35.270Z,103248.94
2023-02-11T21:59:08.089Z,103243.53
2023-02-11T22:01:42.317Z,103249.81
2023-02-11T22:04:15.420Z,103246.44
2023-02-11T22:06:49.203Z,103253.56
2023-02-11T22:09:21.984Z,103252.56
2023-02-11T22:11:54.824Z,103262.34
2023-02-11T22:14:27.911Z,103261.63
2023-02-11T22:17:04.319Z,103263.28
2023-02-11T22:19:37.439Z,103269.47
2023-02-11T22:22:10.540Z,103264.34
2023-02-11T22:24:45.382Z,103270.53
2023-02-11T22:27:20.266Z,103259.19
2023-02-11T22:29:53.334Z,103267.94
2023-02-11T22:32:27.526Z,103268.91
2023-02-11T22:35:01.464Z,103279.44
2023-02-11T22:37:34.301Z,103281.31
2023-02-11T22:40:08.449Z,103281.31
2023-02-11T22:42:41.369Z,103287.44
2023-02-11T22:45:14.286Z,103267.50
2023-02-11T22:47:48.443Z,103299.13
2023-02-11T22:50:21.228Z,103299.88
2023-02-11T22:52:54.054Z,103301.59
2023-02-11T22:55:27.407Z,103304.44
2023-02-11T22:58:00.191Z,103288.66
2023-02-11T23:00:37.756Z,103285.28
2023-02-11T23:03:14.065Z,103307.09
2023-02-11T23:05:46.847Z,103303.59
2023-02-11T23:08:19.707Z,103318.75
2023-02-11T23:10:52.551Z,103311.81
2023-02-11T23:13:25.500Z,103320.59
2023-02-11T23:15:58.377Z,103307.66
2023-02-11T23:18:33.111Z,103323.31
2023-02-11T23:21:10.145Z,103306.56
2023-02-11T23:23:46.096Z,103336.44
2023-02-11T23:26:19.386Z,103333.84
2023-02-11T23:28:52.365Z,103337.25
2023-02-11T23:31:29.025Z,103339.22
2023-02-11T23:34:03.421Z,103340.09
2023-02-11T23:36:37.198Z,103336.44
2023-02-11T23:39:10.052Z,103343.72
2023-02-11T23:41:42.857Z,103343.00
2023-02-11T23:44:15.710Z,103338.44
2023-02-11T23:46:48.515Z,103337.72
2023-02-11T23:49:22.674Z,103332.25
2023-02-11T23:51:57.594Z,103321.19
2023-02-11T23:54:30.393Z,103336.69
2023-02-11T23:57:03.209Z,103327.94
2023-02-11T23:59:36.011Z,103312.19
